EDT,Max TemperatureF,Mean TemperatureF,Min TemperatureF,Max Dew PointF,MeanDew PointF,Min DewpointF,Max Humidity, Mean Humidity, Min Humidity, Max Sea Level PressureIn, Mean Sea Level PressureIn, Min Sea Level PressureIn, Max VisibilityMiles, Mean VisibilityMiles, Min VisibilityMiles, Max Wind SpeedMPH, Mean Wind SpeedMPH, Max Gust SpeedMPH,PrecipitationIn, CloudCover, Events, WindDirDegrees
2012-10-1,75,68,62,72,65,61,94,89,83,29.90,29.85,29.81,10,6,1,10,6,,0.09,8,,63
2012-10-2,87,80,73,73,72,70,94,84,55,30.00,29.87,29.79,10,9,4,16,8,23,0.12,5,Thunderstorm,163
2012-10-3,82,76,71,73,70,66,94,81,58,30.22,30.10,30.00,10,8,4,10,5,,0.01,4,,213
2012-10-4,77,72,64,70,66,63,94,82,65,30.27,30.22,30.18,10,9,5,8,2,,0.04,3,,260
2012-10-5,78,70,60,64,61,57,94,78,54,30.21,30.13,30.05,10,8,1,6,1,,0.00,0,,22
2012-10-6,84,72,59,66,60,57,94,72,40,30.04,29.97,29.89,10,7,1,14,3,18,0.00,0,,232
2012-10-7,75,65,55,63,58,52,94,79,60,30.14,30.01,29.95,10,9,4,16,5,21,0.00,4,,2
2012-10-8,57,54,51,52,49,46,94,84,72,30.17,30.14,30.10,10,9,1,15,8,18,0.77,8,Thunderstorm,24
2012-10-9,60,54,48,54,49,46,94,83,67,30.18,30.13,30.10,10,7,2,10,7,,0.00,8,,349
2012-10-10,73,60,46,55,50,43,94,76,47,30.14,30.09,30.02,10,8,0,12,3,16,0.00,2,,260
2012-10-11,69,58,48,54,46,41,94,69,35,30.32,30.24,30.13,10,10,10,13,4,16,0.00,0,,19
2012-10-12,75,60,46,55,50,43,94,75,41,30.30,30.23,30.18,10,10,8,7,1,,0.00,0,,8
2012-10-13,71,60,48,54,48,45,94,71,41,30.45,30.38,30.31,10,10,8,12,6,16,0.00,0,,39
2012-10-14,78,63,48,61,54,45,94,76,44,30.34,30.21,30.05,10,10,8,12,3,,0.00,2,,111
2012-10-15,80,70,60,66,60,45,94,73,52,30.06,29.89,29.75,10,10,10,15,7,21,0.00,3,,240
2012-10-16,71,58,46,50,44,39,87,65,31,29.96,29.91,29.87,10,10,5,9,5,,0.00,0,,346
2012-10-17,71,58,46,54,47,43,94,74,35,30.03,29.97,29.93,10,10,9,9,1,,0.00,0,,131
2012-10-18,80,66,51,64,57,48,94,79,51,29.94,29.86,29.79,10,10,7,12,5,16,0.00,2,,148
2012-10-19,75,63,51,64,51,36,94,64,24,29.84,29.79,29.75,10,9,2,14,7,21,0.12,2,,218
2012-10-20,73,60,46,52,45,41,88,65,31,29.97,29.86,29.81,10,10,10,15,6,24,0.00,0,,249
2012-10-21,71,58,44,46,43,39,93,66,35,30.16,30.10,29.97,10,10,5,10,5,,0.00,0,,352
2012-10-22,77,60,42,52,44,37,93,68,34,30.26,30.20,30.15,10,10,4,6,1,,0.00,0,,7
2012-10-23,78,61,44,54,47,39,93,68,32,30.23,30.18,30.13,10,10,7,7,1,,0.00,0,,181
2012-10-24,80,63,46,61,51,43,94,72,34,30.23,30.16,30.11,10,8,0,8,1,,0.00,1,,142
2012-10-25,84,68,51,64,56,46,100,73,40,30.17,30.12,30.08,10,9,2,13,3,,0.00,0,,60
2012-10-26,71,63,55,61,58,54,100,82,57,30.08,30.01,29.89,10,9,3,15,6,21,0.00,1,,10
2012-10-27,69,66,62,61,58,52,88,74,64,29.88,29.73,29.66,10,10,10,21,12,29,0.00,4,,7
2012-10-28,73,66,59,52,48,39,68,55,41,29.67,29.62,29.58,10,10,10,18,13,25,0.00,2,,343
2012-10-29,57,52,48,39,32,28,54,45,38,29.63,29.58,29.52,10,10,10,21,13,32,0.00,6,,302
2012-10-30,55,50,44,34,30,28,62,47,36,29.70,29.55,29.46,10,10,10,16,11,26,0.00,2,,261
2012-10-31,64,52,37,36,32,30,81,54,32,29.81,29.74,29.70,10,10,10,15,7,23,0.00,1,,248